Estación Meteorológica Peña el Pijo (Robertgarden) [ 07/23/19 14:25:57 CEST ]

Fecha Hora Presion(HPa) Temp (°C) Humedad % Rocio (°C) Viento ( m/s) Direccion Lluvia 1Hora(mm) Lluvia 24H(mm) LLuvia Total(mm)
2019-May-22 01:01:47 1009.100 21.9 79 18.1         318.05
2019-May-22 02:01:51 1008.900 23.9 82 20.7         318.05
2019-May-22 03:03:17 1008.700 31.9 87 29.5         318.05
2019-May-22 04:01:46 1008.500 31.2 88 29.0         318.05
2019-May-22 05:01:46 1008.600 34.0 90 32.2         318.05
2019-May-22 06:01:40 1008.300 30.8 90 29.0         318.05
2019-May-22 07:01:43 1008.500 27.4 90 25.6         318.05
2019-May-22 08:02:04 1008.800 20.4 90 18.7         318.05
2019-May-22 09:01:53 1009.000 17.1 79 13.4         318.05
2019-May-22 10:01:40 1009.000 21.6 52 11.3         318.05
2019-May-22 11:01:50 1009.000 24.9 38 9.6         318.05
2019-May-22 12:01:52 1009.400 20.4 44 7.7         318.05
2019-May-22 13:01:48 1009.500 26.9 31 8.3         318.05
2019-May-22 14:01:44 1009.100 24.6 34 7.6 1.7 NNE     318.05
2019-May-22 15:01:54 1009.200 22.4 40 8.2         318.05
2019-May-22 16:01:47 1009.200 22.8 41 8.8         318.05
2019-May-22 17:01:52 1008.900 23.4 38 8.2         318.05
2019-May-22 18:01:40 1008.600 26.3 34 9.1         318.05
2019-May-22 19:01:56 1008.700 22.2 39 7.6         318.05
2019-May-22 20:01:51 1008.600 21.0 40 6.9         318.05
2019-May-22 21:01:42 1009.300 19.3 43 6.4         318.05
2019-May-22 22:02:11 1009.700 18.4 52 8.3         318.05
2019-May-22 23:01:50 1010.500 17.1 60 9.3         318.05

Temperatura Máxima:34°    Temperatura Mínima:17°
Presión Máxima:1010.500 Hpa    Presión Mínima:1008.300 Hpa


Volver